Как использовать Узел Мунтера (узел UIAA) в режиме авто. tbhx.zpev.downloadsuper.science

Горы, районы, маршруты, отчеты, схемы, снаряжение. — Есть что написать? Пиши скорее · Главная · Пользователи · О сайте · Справка · Форум. Узел УИАА является незаменимым узлом для экстренного спуска, когда есть только карабин и веревка. Так же есть вариант усиленного. 7.08.2002 От стоянок под "сфинксом" выходим рано утром в 8.00. Первый участок "бараньих лбов" и разрушенных скал проходим с одновременной.

Гора Индюк - конкурс рассказов! - alpinism.ru — альпинизм.

По требованию стандарта УИАА, такие устройства, должны. Совершенно очевидно, что схема и предмет испытаний были. УЧАСТОК 0 - 3 Монолитные скалы с заглаженными зацепами. УЧАСТОК 3 - 4 Карниз с расширяющейся щелью, проходится на ИТО, Френды, крупные. Текущая погода (VATSIM): UIAA 221700Z 31001MPS 9999 NSC M07/M08 Q1020. Схемы аэропорта AIRAC AIP AMDT 09/17 (© ЦАИ ГА): показать схемы Узел Mунтера или UIAA может решить все эти проблемы. При такой схеме нагруженной оказывается защелка блокирующего. Горы, районы, маршруты, отчеты, схемы, снаряжение. — Есть что. Категории сложности по участкам представлены в описаниях по системе UIAA. Схемы UIAA Ала-Арча. Корона, 1 башня, Гаврилов, 4А, схема UIAA. 1 башня. 1 башня, Смирнов, по С стене, 5Б, схема UIAA. 1 башня. Аэропорт: Кадала (Kadala). Чита. Россия. ВПП, частоты, карта, Jeppesen схемы заходы, METAR и TAF аэропорта UIAA. Международный союз альпинистских ассоциаций (UIAA) рекомендует использовать данные символы при составлении альпинистских путеводителей. Схема маршрута в символах UIAA / Медиа-записи раздела: Блокнот / Медиа / альпинизм, скалолазание, спелеология, горный туризм и. Данные схемы маршрутов на вершины Ак-Сая (UIAA), являются личным архивом автора и не имеют ничего общего с ФАСиЛ КР. Схема УИАА. Крючья ск. Закладные эл. Шлямбура. Спец. ИТО *. Ледобуры. 4810. по центру СЗ стены (маршрут Крицука), комбинация с маршрутом. Горы, районы, маршруты, отчеты, схемы, снаряжение. — Есть что написать. savenok 11:06 | 19.08.2010. Молодечики! А схемку UIAA слабо? Введите. Данные METAR, UIAA 241400Z 21001MPS 9999 NSC M04/M11 Q1022 R29/CLRD70 NOSIG RMK QFE707/0943. Проноз погоды (TAF), UIAA 241100Z 2412/2512 22003MPS 9999 NSC. NOTAM, show/hide NOTAM. Схемы. UIAA. BOOK 1. AD 2.1. UIAA-1. RUSSIA. 21 JUL 16. Federal Air Transport Agency. схеме: Index 6 aircraft shall taxi after landing and to the runway line-up position. Узел УИАА Узел применяется в ситуациях, когда необходимо протравливать. Схема закрепления веревки в тормозном устройстве типа “восьмерка”

Схема уиаа